Tiempo atmosférico en la estación meteorológica de Pozuelo De Tabara, Zamora (711 m.)



Fecha
DESCASC
Temp. máxima en grados centígrados (hora)
DESCASC
Temp. mínima en grados centígrados (hora)
DESCASC
Temp. media en grados centígrados
DESCASC
Racha de viento máxima en m/sg (hora)
DESCASC
Velocidad máxima media en intervalos de 10 minutos(hora)
DESCASC
Precipitaciones diarias en mm
DESCASC
Precipitaciones de 00:00 a 06:00 en mm
DESCASC
Precipitaciones de 06:00 a 12:00 en mm
DESCASC
Precipitaciones de 12:00 a 18:00 en mm
DESCASC
Precipitaciones de 18:00 a 24:00 en mm
DESCASC
17-01-2021 -0.9 (16:20) -5.7 (09:30) -3.3 2.5 (02:20) 1.11 (02:30) 0.2 0 0 0 0.2
16-01-2021 -0.3 (16:20) -6.9 (09:00) -3.6 2.5 (16:30) 1.67 (16:30) 0.2 0 0 0.2 0
15-01-2021 -1.7 (15:50) -7.2 (07:40) -4.4 1.39 (02:10) 1.11 (16:30) 0 0 0 0 0
14-01-2021 -1.8 (16:40) -8.4 (08:00) -5.1 2.5 (18:30) 1.39 (02:10) 0 0 0 0 0
13-01-2021 4.8 (16:20) -8.8 (-00:0) -2 3.33 (16:00) 2.78 (16:30) 0 0 0 0 0
12-01-2021 5.9 (15:50) -9.6 (-00:0) -1.9 5.56 (16:50) 3.89 (16:40) 0 0 0 0 0
11-01-2021 5 (16:00) -9.5 (-00:0) -2.3 3.89 (16:50) 2.78 (16:50) 0.2 0 0.2 0 0
10-01-2021 4 (15:10) -8.9 (23:10) -2.4 9.72 (01:20) 6.67 (00:40) 2 0 1.4 0.6 0
09-01-2021 2.1 (14:20) -1.9 (-00:0) 0.1 16.11 (14:20) 10.56 (14:40) 0 0 0 0 0
08-01-2021 2.9 (15:00) -5.7 (-00:0) -1.4 13.33 (16:50) 8.89 (15:50) 0 0 0 0 0
07-01-2021 4.5 (16:10) -6.2 (-00:0) -0.8 7.22 (13:50) 4.72 (16:30) 0 0 0 0 0
06-01-2021 4.8 (15:50) -6.7 (-00:0) -0.9 4.72 (13:20) 3.06 (00:10) 0 0 0 0 0
05-01-2021 6.1 (15:10) -6.9 (-00:0) -0.4 4.72 (16:10) 3.33 (16:10) 0 0 0 0 0
04-01-2021 6 (14:50) -3.9 (-00:0) 1 9.17 (09:20) 6.67 (09:20) 0 0 0 0 0
03-01-2021 7.3 (15:30) -2.7 (-00:0) 2.3 11.94 (16:40) 8.89 (16:40) 0 0 0 0 0
02-01-2021 6.2 (16:50) -4.8 (-00:0) 0.7 7.22 (13:00) 4.72 (13:30) 0 0 0 0 0
01-01-2021 -- (--) -- (--) -- -- (--) -- (--) -- 0 -- 0 0
31-12-2020 7.3 (14:50) 1.1 (00:00) 4.2 15.56 (06:40) 12.22 (06:50) 0.2 0 0 0.2 0
30-12-2020 6.6 (16:30) -0.4 (00:00) 3.1 11.67 (23:10) 8.61 (23:10) 0 0 0 0 0
29-12-2020 7.4 (15:20) 0 (00:00) 3.7 13.33 (07:30) 9.17 (10:40) 0 0 0 0 0
28-12-2020 7.6 (00:40) 1.9 (00:00) 4.7 20 (01:10) 13.89 (14:00) 1.2 1.2 0 0 0
27-12-2020 7.2 (23:20) -3 (-00:0) 2.1 21.39 (15:10) 15.28 (15:10) 0.6 0 0 0 0.6
26-12-2020 6.4 (15:20) -5.3 (-00:0) 0.5 3.33 (15:00) 2.22 (04:30) 0 0 0 0 0
25-12-2020 6.3 (14:20) -3.1 (-00:0) 1.6 8.06 (15:50) 5.28 (15:30) 0 0 0 0 0
24-12-2020 8.4 (14:50) -0.5 (-00:0) 3.9 8.06 (13:10) 5.83 (13:10) 0 0 0 0 0
23-12-2020 10.3 (16:20) 3.8 (23:50) 7.1 9.17 (13:50) 6.94 (12:00) 0 0 0 0 0
21-12-2020 13.7 (13:40) 8.3 (00:00) 11 10.83 (12:40) 7.5 (11:50) 0.2 0.2 0 0 0

Gráficas

Temp. máximas Temp. mínimas Temp. medias Precipitaciones Rachas de viento máximas Velocidades máximas media en intervalos de 10 minutos

Datos horarios

Fecha y hora oficial Temperatura (ºC) Velocidad del viento (km/h) Dirección del viento Racha (km/h) Dirección de racha Precipitación (mm) Presión (hPa) Tendencia (hPa) Humedad (%)
2021-01-19 23:00:00 4.9 18 Sudoeste 29 Sudoeste 0 -- -- 86
2021-01-19 22:00:00 4.1 14 Sur 30 Sudoeste 0 -- -- 90
2021-01-19 21:00:00 2.7 18 Sudoeste 31 Sudoeste 0 -- -- 100
2021-01-19 20:00:00 -0.6 0 Calma 10 Este 0 -- -- 99
2021-01-19 19:00:00 -0.3 5 Sudeste 9 Sudeste 0 -- -- 98
2021-01-19 18:00:00 0.2 7 Sudeste 9 Sudeste 0 -- -- 99
2021-01-19 17:00:00 0.5 8 Sudeste 13 Sudeste 0 -- -- 98
2021-01-19 16:00:00 0.5 6 Este 10 Este 0 -- -- 99
2021-01-19 15:00:00 -0.3 4 Este 9 Este 0 -- -- 98
2021-01-19 14:00:00 -1 3 Sudeste 5 Este 0.2 -- -- 98
2021-01-19 13:00:00 -2 3 Este 5 Este 0 -- -- 98
2021-01-19 12:00:00 -2.4 0 Calma 4 Sur 0 -- -- 98
2021-01-19 11:00:00 -3.1 0 Calma 5 Norte 0 -- -- 98
2021-01-19 10:00:00 -3.5 2 Nordeste 5 Nordeste 0 -- -- 98
2021-01-19 09:00:00 -3.5 0 Calma 7 Nordeste 0 -- -- 98
2021-01-19 08:00:00 -3.2 3 Noroeste 6 Norte 0 -- -- 97
2021-01-19 07:00:00 -2.9 4 Noroeste 6 Noroeste 0 -- -- 97
2021-01-19 06:00:00 -2.8 0 Calma 4 Sur 0 -- -- 97
2021-01-19 05:00:00 -3.4 3 Sur 6 Sudeste 0 -- -- 97
2021-01-19 04:00:00 -5 0 Calma 2 Sudoeste 0 -- -- 96
2021-01-19 03:00:00 -4.6 0 Calma 4 Oeste 0 -- -- 95
2021-01-19 02:00:00 -4.3 0 Calma 5 Oeste 0 -- -- 95
2021-01-19 01:00:00 -3.9 0 Calma 2 Norte 0 -- -- 96
2021-01-19 00:00:00 -3.3 0 Calma 3 Oeste 0 -- -- 96
2021-01-18 23:00:00 -2.3 3 Oeste 9 Noroeste 0 -- -- 96
2021-01-18 22:00:00 -2.4 6 Noroeste 9 Noroeste 0 -- -- 95
2021-01-18 21:00:00 -2 8 Noroeste 10 Noroeste 0 -- -- 95
2021-01-18 20:00:00 -1.8 4 Oeste 8 Oeste 0 -- -- 94
2021-01-18 19:00:00 -0.2 4 Oeste 10 Sudeste 0 -- -- 91
2021-01-18 18:00:00 3.1 5 Sudeste 7 Sudeste 0 -- -- 85
2021-01-18 17:00:00 4 6 Sudeste 9 Sudeste 0 -- -- 96
2021-01-18 16:00:00 3.2 7 Sudeste 11 Sudeste 0 -- -- 98
2021-01-18 15:00:00 1.9 6 Sudeste 8 Este 0 -- -- 99
2021-01-18 14:00:00 0.2 2 Sur 5 Sudeste 0 -- -- 99
2021-01-18 13:00:00 -0.8 0 Calma 7 Sudoeste 0 -- -- 99
2021-01-18 12:00:00 -2 0 Calma -- -- 0 -- -- 98
2021-01-18 11:00:00 -3.1 0 Calma -- -- 0 -- -- 98
2021-01-18 10:00:00 -3.4 0 Calma -- -- 0 -- -- 99
2021-01-18 09:00:00 -6.2 0 Calma -- -- 0 -- -- 96
2021-01-18 08:00:00 -6.3 0 Calma -- -- 0 -- -- 95
2021-01-18 07:00:00 -6.1 0 Calma -- -- 0 -- -- 95
2021-01-18 06:00:00 -5.8 0 Calma -- -- 0 -- -- 96
2021-01-18 05:00:00 -5.4 0 Calma -- -- 0 -- -- 96
2021-01-18 04:00:00 -5.6 0 Calma -- -- 0 -- -- 96
2021-01-18 03:00:00 -5.2 0 Calma -- -- 0 -- -- 96
2021-01-18 02:00:00 -4.8 0 Calma -- -- 0 -- -- 96
2021-01-18 01:00:00 -4.7 0 Calma -- -- 0 -- -- 96
2021-01-18 00:00:00 -4.1 0 Calma -- -- 0 -- -- 97
2021-01-17 23:00:00 -3.8 0 Calma -- -- 0.2 -- -- 97
2021-01-17 22:00:00 -3.3 0 Calma -- -- 0 -- -- 97
2021-01-17 21:00:00 -2.6 0 Calma -- -- 0 -- -- 98
2021-01-17 20:00:00 -2.2 0 Calma -- -- 0 -- -- 99
2021-01-17 19:00:00 -1.8 0 Calma -- -- 0 -- -- 99
2021-01-17 18:00:00 -1.3 0 Calma -- -- 0 -- -- 99
2021-01-17 17:00:00 -1 0 Calma 3 Sudeste 0 -- -- 99
2021-01-17 16:00:00 -1 0 Calma 4 Sudeste 0 -- -- 98
2021-01-17 15:00:00 -1.5 0 Calma -- -- 0 -- -- 98
2021-01-17 14:00:00 -2.4 0 Calma -- -- 0 -- -- 98
2021-01-17 13:00:00 -3.3 0 Calma 0 Calma 0 -- -- 98
2021-01-17 12:00:00 -4.3 0 Calma -- -- 0 -- -- 97
2021-01-17 11:00:00 -4.8 0 Calma -- -- 0 -- -- 96
2021-01-17 10:00:00 -5.6 0 Calma -- -- 0 -- -- 96
2021-01-17 09:00:00 -5.6 0 Calma -- -- 0 -- -- 96
2021-01-17 08:00:00 -5.4 0 Calma -- -- 0 -- -- 96
2021-01-17 07:00:00 -5.5 0 Calma -- -- 0 -- -- 96
2021-01-17 06:00:00 -5.6 0 Calma -- -- 0 -- -- 96
2021-01-17 05:00:00 -5.4 0 Calma -- -- 0 -- -- 96
2021-01-17 04:00:00 -5.3 0 Calma -- -- 0 -- -- 96
2021-01-17 03:00:00 -4.9 0 Calma 9 Nordeste 0 -- -- 96
2021-01-17 02:00:00 -4.1 0 Calma 4 Nordeste 0 -- -- 97
2021-01-17 01:00:00 -3.9 0 Calma -- -- 0 -- -- 97
2021-01-17 00:00:00 -3.6 0 Calma 4 Nordeste 0 -- -- 97
2021-01-16 23:00:00 -3.4 4 Norte 7 Nordeste 0 -- -- 97
2021-01-16 22:00:00 -3.1 3 Norte 6 Nordeste 0 -- -- 98
2021-01-16 21:00:00 -2.7 3 Nordeste 6 Este 0 -- -- 98
2021-01-16 20:00:00 -2.1 2 Nordeste 8 Este 0 -- -- 98
2021-01-16 19:00:00 -1.5 2 Este 5 Este 0 -- -- 98
2021-01-16 18:00:00 -1.1 0 Calma 6 Nordeste 0 -- -- 98
2021-01-16 17:00:00 -0.5 5 Nordeste 9 Este 0 -- -- 98
2021-01-16 16:00:00 -0.6 0 Calma 0 Calma 0 -- -- 98
2021-01-16 15:00:00 -1.8 0 Calma -- -- 0 -- -- 98
2021-01-16 14:00:00 -2.8 0 Calma -- -- 0 -- -- 97
2021-01-16 13:00:00 -3.5 0 Calma -- -- 0.2 -- -- 97
2021-01-16 12:00:00 -4.5 0 Calma -- -- 0 -- -- 96
2021-01-16 11:00:00 -5.8 0 Calma -- -- 0 -- -- 96
2021-01-16 10:00:00 -6.5 0 Calma -- -- 0 -- -- 95
2021-01-16 09:00:00 -6.9 0 Calma -- -- 0 -- -- 94
2021-01-16 08:00:00 -6.6 0 Calma -- -- 0 -- -- 94
2021-01-16 07:00:00 -6.4 0 Calma -- -- 0 -- -- 95
2021-01-16 06:00:00 -6.1 0 Calma -- -- 0 -- -- 95
2021-01-16 05:00:00 -5.8 0 Calma -- -- 0 -- -- 95
2021-01-16 04:00:00 -5.6 0 Calma -- -- 0 -- -- 95
2021-01-16 03:00:00 -5.7 0 Calma -- -- 0 -- -- 95
2021-01-16 02:00:00 -5.6 0 Calma 3 Oeste 0 -- -- 95
2021-01-16 01:00:00 -5.3 3 Oeste 5 Oeste 0 -- -- 96
2021-01-16 00:00:00 -4.2 3 Oeste 5 Noroeste 0 -- -- 96
2021-01-15 23:00:00 -3.9 0 Calma 4 Noroeste 0 -- -- 97
2021-01-15 22:00:00 -3.5 0 Calma 5 Noroeste 0 -- -- 97
2021-01-15 21:00:00 -3.1 0 Calma 5 Noroeste 0 -- -- 98
2021-01-15 20:00:00 -2.8 0 Calma 4 Este 0 -- -- 98
2021-01-15 19:00:00 -2.7 0 Calma 3 Sur 0 -- -- 98
2021-01-15 18:00:00 -2.4 0 Calma 4 Sudeste 0 -- -- 97
2021-01-15 17:00:00 -2 0 Calma 5 Sudeste 0 -- -- 98
2021-01-15 16:00:00 -1.8 2 Sudeste 5 Este 0 -- -- 97
2021-01-15 15:00:00 -2.2 0 Calma -- -- 0 -- -- 97
2021-01-15 14:00:00 -2.8 0 Calma -- -- 0 -- -- 98
2021-01-15 13:00:00 -4 0 Calma -- -- 0 -- -- 97
2021-01-15 12:00:00 -4.5 0 Calma -- -- 0 -- -- 96
2021-01-15 11:00:00 -5.1 0 Calma -- -- 0 -- -- 96
2021-01-15 10:00:00 -5.7 0 Calma -- -- 0 -- -- 95
2021-01-15 09:00:00 -6.9 0 Calma -- -- 0 -- -- 95
2021-01-15 08:00:00 -7 0 Calma -- -- 0 -- -- 94
2021-01-15 07:00:00 -6.9 0 Calma -- -- 0 -- -- 94
2021-01-15 06:00:00 -6.9 0 Calma -- -- 0 -- -- 94
2021-01-15 05:00:00 -6.5 0 Calma -- -- 0 -- -- 94
2021-01-15 04:00:00 -5.5 0 Calma -- -- 0 -- -- 95
2021-01-15 03:00:00 -5.2 0 Calma 5 Oeste 0 -- -- 96
2021-01-15 02:00:00 -5.1 0 Calma 4 Oeste 0 -- -- 96
2021-01-15 01:00:00 -4.6 0 Calma 5 Oeste 0 -- -- 96
2021-01-15 00:00:00 -4.2 0 Calma 4 Sudeste 0 -- -- 96
2021-01-14 23:00:00 -3.8 2 Noroeste 5 Oeste 0 -- -- 97
2021-01-14 22:00:00 -3.2 0 Calma 4 Noroeste 0 -- -- 97
2021-01-14 21:00:00 -2.9 0 Calma 5 Noroeste 0 -- -- 97
2021-01-14 20:00:00 -2.9 0 Calma 4 Este 0 -- -- 97
2021-01-14 19:00:00 -2.5 2 Sudeste 9 Este 0 -- -- 97
2021-01-14 18:00:00 -2 3 Este 5 Nordeste 0 -- -- 97
2021-01-14 17:00:00 -1.9 0 Calma 6 Este 0 -- -- 97
2021-01-14 16:00:00 -2.1 0 Calma 7 Nordeste 0 -- -- 96
2021-01-14 15:00:00 -2.3 3 Este 6 Sudeste 0 -- -- 96
2021-01-14 14:00:00 -3.1 0 Calma 5 Sudeste 0 -- -- 96
2021-01-14 13:00:00 -4.1 3 Sudeste 9 Sur 0 -- -- 96
2021-01-14 12:00:00 -5 0 Calma 3 Sudeste 0 -- -- 95
2021-01-14 11:00:00 -5.5 0 Calma 4 Oeste 0 -- -- 95
2021-01-14 10:00:00 -6.1 0 Calma 4 Sudeste 0 -- -- 95
2021-01-14 09:00:00 -6.6 4 Sudeste 8 Sudeste 0 -- -- 94
2021-01-14 08:00:00 -8.4 2 Este 3 Este 0 -- -- 92
2021-01-14 07:00:00 -8 0 Calma 3 Sudeste 0 -- -- 92
2021-01-14 06:00:00 -7.6 0 Calma 6 Noroeste 0 -- -- 93
2021-01-14 05:00:00 -7.4 0 Calma 2 Oeste 0 -- -- 94
2021-01-14 04:00:00 -7.1 0 Calma 2 Sur 0 -- -- 92
2021-01-14 03:00:00 -6.6 0 Calma 7 Oeste 0 -- -- 92
2021-01-14 02:00:00 -6.8 3 Oeste 4 Oeste 0 -- -- 92
2021-01-14 01:00:00 -5.8 0 Calma 2 Sudoeste 0 -- -- 92
2021-01-14 00:00:00 -5.1 0 Calma 8 Oeste 0 -- -- 92
2021-01-13 23:00:00 -5.1 8 Oeste 9 Oeste 0 -- -- 92
2021-01-13 22:00:00 -4.1 9 Oeste 10 Oeste 0 -- -- 92
2021-01-13 21:00:00 -4 4 Noroeste 8 Oeste 0 -- -- 92
2021-01-13 20:00:00 -3.5 6 Oeste 8 Oeste 0 -- -- 90
2021-01-13 19:00:00 -2.3 2 Noroeste 10 Sudeste 0 -- -- 84
2021-01-13 18:00:00 1.9 8 Sudeste 10 Este 0 -- -- 74
2021-01-13 17:00:00 4.5 9 Este 12 Este 0 -- -- 67
2021-01-13 16:00:00 4.7 8 Este 12 Este 0 -- -- 66
2021-01-13 15:00:00 4.1 4 Sudeste 8 Sudeste 0 -- -- 69
2021-01-13 14:00:00 3.1 2 Sudeste 6 Sudeste 0 -- -- 72
2021-01-13 13:00:00 1.9 3 Sur 9 Este 0 -- -- 77
2021-01-13 12:00:00 0.5 2 Este 5 Sudeste 0 -- -- 82
2021-01-13 11:00:00 -1 0 Calma 5 Oeste 0 -- -- 89
2021-01-13 10:00:00 -4.8 3 Noroeste 6 Noroeste 0 -- -- 95
2021-01-13 09:00:00 -8.2 0 Calma 6 Oeste 0 -- -- 93
2021-01-13 08:00:00 -8.2 3 Oeste 5 Oeste 0 -- -- 93
2021-01-13 07:00:00 -8.5 0 Calma 2 Sur 0 -- -- 92
2021-01-13 06:00:00 -8.2 0 Calma 3 Oeste 0 -- -- 92
2021-01-13 05:00:00 -8.1 2 Oeste 3 Oeste 0 -- -- 91
2021-01-13 04:00:00 -7.3 0 Calma 2 Noroeste 0 -- -- 92
2021-01-13 03:00:00 -7 0 Calma 3 Sudoeste 0 -- -- 93
2021-01-13 02:00:00 -6.7 0 Calma 2 Sudoeste 0 -- -- 92
2021-01-13 01:00:00 -6.3 0 Calma 3 Noroeste 0 -- -- 92
2021-01-13 00:00:00 -5.7 2 Noroeste 4 Noroeste 0 -- -- 92
2021-01-12 23:00:00 -4.7 3 Este 6 Noroeste 0 -- -- 92
2021-01-12 22:00:00 -3.9 3 Noroeste 8 Noroeste 0 -- -- 91
2021-01-12 21:00:00 -3 2 Norte 5 Noroeste 0 -- -- 89
2021-01-12 20:00:00 -1.5 0 Calma 5 Norte 0 -- -- 83
2021-01-12 19:00:00 2.1 0 Calma 13 Sur 0 -- -- 71
2021-01-12 18:00:00 3.6 5 Este 20 Sur 0 -- -- 68
2021-01-12 17:00:00 5 14 Sudoeste 20 Sur 0 -- -- 65
2021-01-12 16:00:00 5.9 9 Sur 14 Sudoeste 0 -- -- 62
2021-01-12 15:00:00 5.4 8 Sur 11 Sur 0 -- -- 61
2021-01-12 14:00:00 4.5 7 Sur 13 Sudeste 0 -- -- 64
2021-01-12 13:00:00 1.5 4 Sudeste 6 Este 0 -- -- 76
2021-01-12 12:00:00 -0.1 2 Sudeste 4 Este 0 -- -- 78
2021-01-12 11:00:00 -2.5 0 Calma 2 Sur 0 -- -- 84
2021-01-12 10:00:00 -6.2 0 Calma 3 Norte 0 -- -- 93
2021-01-12 09:00:00 -9.6 0 Calma 0 Calma 0 -- -- 92
2021-01-12 08:00:00 -9.3 0 Calma 3 Norte 0 -- -- 90
2021-01-12 07:00:00 -8.4 0 Calma 5 Noroeste 0 -- -- 92
2021-01-12 06:00:00 -7.8 3 Noroeste 8 Oeste 0 -- -- 92
2021-01-12 05:00:00 -7.2 8 Oeste 12 Oeste 0 -- -- 93
2021-01-12 04:00:00 -7.5 4 Noroeste 11 Oeste 0 -- -- 91
2021-01-12 03:00:00 -7.3 6 Noroeste 9 Noroeste 0 -- -- 91
2021-01-12 02:00:00 -6.9 3 Oeste 11 Oeste 0 -- -- 91
2021-01-12 01:00:00 -6.9 0 Calma 12 Oeste 0 -- -- 91
2021-01-12 00:00:00 -6.2 9 Noroeste 12 Noroeste 0 -- -- 92
2021-01-11 23:00:00 -6.5 5 Oeste 10 Noroeste 0 -- -- 91
2021-01-11 22:00:00 -6.2 5 Oeste 10 Oeste 0 -- -- 91
2021-01-11 21:00:00 -5.3 6 Noroeste 9 Oeste 0 -- -- 89
2021-01-11 20:00:00 -4.2 3 Noroeste 9 Sudeste 0 -- -- 86
2021-01-11 19:00:00 -1.6 3 Sudeste 9 Sudeste 0 -- -- 80
2021-01-11 18:00:00 1.2 7 Sur 12 Este 0 -- -- 73
2021-01-11 17:00:00 4.3 8 Este 14 Este 0 -- -- 60
2021-01-11 16:00:00 5 3 Sur 11 Sudeste 0 -- -- 58
2021-01-11 15:00:00 3.7 6 Sudeste 11 Sudeste 0 -- -- 64
2021-01-11 14:00:00 3.3 5 Sudeste 8 Nordeste 0 -- -- 63
2021-01-11 13:00:00 3.3 4 Sudeste 7 Sur 0 -- -- 61
2021-01-11 12:00:00 2.5 2 Sur 4 Sur 0 -- -- 62
2021-01-11 11:00:00 -0.7 0 Calma 4 Noroeste 0.2 -- -- 81
2021-01-11 10:00:00 -5.9 0 Calma 4 Sudoeste 0 -- -- 90
2021-01-11 09:00:00 -9 0 Calma 6 Noroeste 0 -- -- 89
2021-01-11 08:00:00 -8.7 5 Noroeste 8 Noroeste 0 -- -- 90
2021-01-11 07:00:00 -8.8 4 Oeste 12 Oeste 0 -- -- 90
2021-01-11 06:00:00 -9.4 9 Oeste 12 Oeste 0 -- -- 89
2021-01-11 05:00:00 -9 4 Oeste 8 Oeste 0 -- -- 91
2021-01-11 04:00:00 -9.4 4 Noroeste 9 Noroeste 0 -- -- 88
2021-01-11 03:00:00 -9.4 5 Oeste 8 Oeste 0 -- -- 89
2021-01-11 02:00:00 -9.3 2 Oeste 8 Oeste 0 -- -- 88
2021-01-11 01:00:00 -8.8 5 Noroeste 9 Noroeste 0 -- -- 88
2021-01-11 00:00:00 -8.6 6 Noroeste 9 Noroeste 0 -- -- 90
2021-01-10 23:00:00 -8.4 5 Noroeste 7 Noroeste 0 -- -- 87
2021-01-10 22:00:00 -5.3 0 Calma 8 Sur 0 -- -- 89
2021-01-10 21:00:00 -4.5 4 Oeste 10 Nordeste 0 -- -- 89
2021-01-10 20:00:00 -3.1 3 Norte 13 Nordeste 0 -- -- 85
2021-01-10 19:00:00 -1.1 4 Sudeste 15 Este 0 -- -- 79
2021-01-10 18:00:00 1.6 9 Este 25 Este 0 -- -- 73
2021-01-10 17:00:00 3.1 18 Este 28 Este 0 -- -- 68
2021-01-10 16:00:00 2.9 18 Este 28 Este 0 -- -- 72
2021-01-10 15:00:00 3.7 14 Sudeste 20 Este 0 -- -- 70
2021-01-10 14:00:00 2.1 15 Este 20 Sudeste 0 -- -- 75
2021-01-10 13:00:00 2.9 9 Este 18 Nordeste 0.6 -- -- 71
2021-01-10 12:00:00 1.4 8 Nordeste 13 Nordeste 1.4 -- -- 73
2021-01-10 11:00:00 0.4 2 Nordeste 9 Norte 0 -- -- 84
2021-01-10 10:00:00 -0.7 7 Norte 10 Nordeste 0 -- -- 87
2021-01-10 09:00:00 -0.8 8 Nordeste 17 Nordeste 0 -- -- 88
2021-01-10 08:00:00 -0.2 11 Nordeste 24 Este 0 -- -- 87
2021-01-10 07:00:00 0.1 15 Este 32 Este 0 -- -- 87
2021-01-10 06:00:00 0.2 19 Este 32 Este 0 -- -- 89
2021-01-10 05:00:00 -0.3 14 Este 24 Este 0 -- -- 94
2021-01-10 04:00:00 -0.7 8 Este 18 Este 0 -- -- 95
2021-01-10 03:00:00 -0.5 14 Este 32 Este 0 -- -- 93
2021-01-10 02:00:00 -0.4 21 Este 35 Este 0 -- -- 91
2021-01-10 01:00:00 -0.6 19 Este 34 Nordeste 0 -- -- 89
2021-01-10 00:00:00 -0.7 19 Nordeste 31 Nordeste 0 -- -- 91
2021-01-09 23:00:00 -0.6 19 Nordeste 30 Nordeste 0 -- -- 95
2021-01-09 22:00:00 -0.7 16 Nordeste 26 Nordeste 0 -- -- 97
2021-01-09 21:00:00 -0.5 14 Nordeste 33 Nordeste 0 -- -- 97
2021-01-09 20:00:00 -0.4 16 Nordeste 25 Nordeste 0 -- -- 97
2021-01-09 19:00:00 -0.3 15 Nordeste 25 Nordeste 0 -- -- 96
2021-01-09 18:00:00 -0.3 13 Nordeste 30 Nordeste 0 -- -- 95
2021-01-09 17:00:00 0 19 Nordeste 33 Nordeste 0 -- -- 92
2021-01-09 16:00:00 0.1 18 Nordeste 36 Nordeste 0 -- -- 91
2021-01-09 15:00:00 1.3 27 Nordeste 58 Nordeste 0 -- -- 75
2021-01-09 14:00:00 1.6 23 Nordeste 53 Nordeste 0 -- -- 71
2021-01-09 13:00:00 0.4 19 Nordeste 37 Nordeste 0 -- -- 81
2021-01-09 12:00:00 0.6 26 Nordeste 45 Nordeste 0 -- -- 73
2021-01-09 11:00:00 0.5 19 Nordeste 32 Nordeste 0 -- -- 69
2021-01-09 10:00:00 -0.5 20 Nordeste 37 Nordeste 0 -- -- 73
2021-01-09 09:00:00 -0.9 24 Nordeste 44 Nordeste 0 -- -- 76
2021-01-09 08:00:00 -1.4 23 Nordeste 40 Nordeste 0 -- -- 83
2021-01-09 07:00:00 -1.6 27 Nordeste 45 Nordeste 0 -- -- 86
2021-01-09 06:00:00 -1.7 23 Nordeste 38 Nordeste 0 -- -- 85
2021-01-09 05:00:00 -1.6 19 Nordeste 48 Nordeste 0 -- -- 79
2021-01-09 04:00:00 -1.2 19 Nordeste 35 Nordeste 0 -- -- 64
2021-01-09 03:00:00 -1.2 15 Nordeste 36 Nordeste 0 -- -- 61
2021-01-09 02:00:00 -0.8 25 Nordeste 45 Nordeste 0 -- -- 60
2021-01-09 01:00:00 -0.8 22 Nordeste 38 Nordeste 0 -- -- 64
2021-01-09 00:00:00 -0.8 22 Nordeste 40 Nordeste 0 -- -- 65
2021-01-08 23:00:00 -0.9 21 Nordeste 35 Nordeste 0 -- -- 64
2021-01-08 22:00:00 -0.8 21 Nordeste 40 Nordeste 0 -- -- 66
2021-01-08 21:00:00 -0.8 19 Nordeste 34 Nordeste 0 -- -- 66
2021-01-08 20:00:00 -0.7 21 Nordeste 32 Nordeste 0 -- -- 66
2021-01-08 19:00:00 -0.8 8 Este 26 Nordeste 0 -- -- 67
2021-01-08 18:00:00 1 17 Nordeste 46 Este 0 -- -- 58
2021-01-08 17:00:00 1.8 26 Nordeste 48 Nordeste 0 -- -- 54
2021-01-08 16:00:00 2.7 28 Nordeste 44 Nordeste 0 -- -- 52
2021-01-08 15:00:00 2.9 27 Nordeste 43 Este 0 -- -- 53
2021-01-08 14:00:00 1.6 24 Nordeste 39 Nordeste 0 -- -- 60
2021-01-08 13:00:00 -0.3 20 Nordeste 33 Nordeste 0 -- -- 69
2021-01-08 12:00:00 -1.4 14 Nordeste 25 Nordeste 0 -- -- 73
2021-01-08 11:00:00 -2.3 13 Nordeste 22 Nordeste 0 -- -- 77
2021-01-08 10:00:00 -4 7 Norte 12 Norte 0 -- -- 85
2021-01-08 09:00:00 -5 5 Nordeste 10 Norte 0 -- -- 87
2021-01-08 08:00:00 -5.3 6 Nordeste 10 Nordeste 0 -- -- 89
2021-01-08 07:00:00 -5.3 6 Nordeste 10 Norte 0 -- -- 89
2021-01-08 06:00:00 -5.5 3 Nordeste 7 Norte 0 -- -- 88
2021-01-08 05:00:00 -5.2 5 Norte 9 Norte 0 -- -- 89
2021-01-08 04:00:00 -5 5 Norte 8 Norte 0 -- -- 89
2021-01-08 03:00:00 -4.3 3 Norte 9 Norte 0 -- -- 87
2021-01-08 02:00:00 -4.9 3 Norte 8 Norte 0 -- -- 88
2021-01-08 01:00:00 -5.4 4 Noroeste 9 Norte 0 -- -- 87
2021-01-08 00:00:00 -5.3 4 Noroeste 8 Oeste 0 -- -- 88
2021-01-07 23:00:00 -4.1 2 Noroeste 4 Nordeste 0 -- -- 85
2021-01-07 22:00:00 -3.5 2 Norte 4 Nordeste 0 -- -- 85
2021-01-07 21:00:00 -2.7 3 Nordeste 8 Nordeste 0 -- -- 83
2021-01-07 20:00:00 -3 2 Oeste 5 Sudoeste 0 -- -- 83
2021-01-07 19:00:00 -0.8 2 Oeste 15 Nordeste 0 -- -- 76
2021-01-07 18:00:00 1.6 10 Nordeste 23 Nordeste 0 -- -- 64
2021-01-07 17:00:00 3.8 17 Nordeste 26 Este 0 -- -- 55
2021-01-07 16:00:00 4.4 14 Nordeste 25 Norte 0 -- -- 54
2021-01-07 15:00:00 3.8 14 Nordeste 22 Nordeste 0 -- -- 57
2021-01-07 14:00:00 3.2 12 Nordeste 26 Nordeste 0 -- -- 61
2021-01-07 13:00:00 2.3 14 Nordeste 21 Nordeste 0 -- -- 66
2021-01-07 12:00:00 0.4 12 Nordeste 18 Nordeste 0 -- -- 76
2021-01-07 11:00:00 -1.1 10 Nordeste 17 Nordeste 0 -- -- 79
2021-01-07 10:00:00 -3.6 5 Noroeste 10 Oeste 0 -- -- 89
2021-01-07 09:00:00 -6 10 Noroeste 12 Oeste 0 -- -- 91
2021-01-07 08:00:00 -5.9 6 Oeste 9 Noroeste 0 -- -- 91
2021-01-07 07:00:00 -5.9 6 Oeste 10 Noroeste 0 -- -- 92
2021-01-07 06:00:00 -5.6 9 Noroeste 10 Noroeste 0 -- -- 92
2021-01-07 05:00:00 -5.8 8 Oeste 10 Oeste 0 -- -- 91
2021-01-07 04:00:00 -5.3 8 Oeste 10 Oeste 0 -- -- 91
2021-01-07 03:00:00 -4.8 6 Oeste 10 Oeste 0 -- -- 91
2021-01-07 02:00:00 -4.8 10 Oeste 13 Noroeste 0 -- -- 91
2021-01-07 01:00:00 -4.6 8 Oeste 12 Oeste 0 -- -- 92
2021-01-07 00:00:00 -4.8 3 Noroeste 6 Noroeste 0 -- -- 92
2021-01-06 23:00:00 -4.6 5 Oeste 10 Oeste 0 -- -- 91
2021-01-06 22:00:00 -4.2 3 Noroeste 8 Oeste 0 -- -- 91
2021-01-06 21:00:00 -3.6 7 Noroeste 12 Oeste 0 -- -- 90
2021-01-06 20:00:00 -3 6 Noroeste 9 Noroeste 0 -- -- 89
2021-01-06 19:00:00 -1.6 0 Calma 8 Sudeste 0 -- -- 83
2021-01-06 18:00:00 1.6 6 Sudeste 12 Sudeste 0 -- -- 73
2021-01-06 17:00:00 4.3 7 Este 14 Este 0 -- -- 63
2021-01-06 16:00:00 4.8 4 Este 15 Nordeste 0 -- -- 61
2021-01-06 15:00:00 4.3 6 Este 14 Este 0 -- -- 65
2021-01-06 14:00:00 3.3 5 Nordeste 17 Nordeste 0 -- -- 70
2021-01-06 13:00:00 2.2 6 Nordeste 13 Este 0 -- -- 76
2021-01-06 12:00:00 1 6 Nordeste 10 Nordeste 0 -- -- 81
2021-01-06 11:00:00 -0.4 0 Calma 2 Nordeste 0 -- -- 86
2021-01-06 10:00:00 -3.7 0 Calma 3 Oeste 0 -- -- 92
2021-01-06 09:00:00 -5.9 2 Oeste 6 Oeste 0 -- -- 92
2021-01-06 08:00:00 -6.3 3 Noroeste -- -- 0 -- -- 93
2021-01-06 07:00:00 -6.4 0 Calma 6 Noroeste 0 -- -- 92
2021-01-06 06:00:00 -6.2 4 Norte 6 Noroeste 0 -- -- 92
2021-01-06 05:00:00 -6.3 4 Noroeste 5 Oeste 0 -- -- 91
2021-01-06 04:00:00 -5.5 0 Calma 3 Este 0 -- -- 91
2021-01-06 03:00:00 -4.9 0 Calma 4 Sudeste 0 -- -- 90
2021-01-06 02:00:00 -4 5 Oeste 13 Noroeste 0 -- -- 88
2021-01-06 01:00:00 -4.2 8 Noroeste 13 Noroeste 0 -- -- 89
2021-01-06 00:00:00 -3.8 8 Oeste 10 Oeste 0 -- -- 89
2021-01-05 23:00:00 -3.8 3 Noroeste 7 Noroeste 0 -- -- 88
2021-01-05 22:00:00 -3.2 4 Oeste 8 Oeste 0 -- -- 86
2021-01-05 21:00:00 -2.2 2 Oeste 10 Nordeste 0 -- -- 82
2021-01-05 20:00:00 -0.9 6 Nordeste 10 Sudoeste 0 -- -- 75
2021-01-05 19:00:00 0.5 11 Sudoeste 14 Sudoeste 0 -- -- 72
2021-01-05 18:00:00 2.3 8 Sudoeste 13 Sur 0 -- -- 68
2021-01-05 17:00:00 5.2 9 Sur 17 Sur 0 -- -- 58
2021-01-05 16:00:00 5.8 9 Sudoeste 15 Sudoeste 0 -- -- 53
2021-01-05 15:00:00 6 3 Sudoeste 14 Oeste 0 -- -- 48
2021-01-05 14:00:00 5.7 3 Sudoeste 7 Oeste 0 -- -- 49
2021-01-05 13:00:00 4.4 3 Sur 6 Sudoeste 0 -- -- 60
2021-01-05 12:00:00 1.4 3 Este 6 Este 0 -- -- 79
2021-01-05 11:00:00 -0.9 0 Calma 4 Este 0 -- -- 85
2021-01-05 10:00:00 -3.9 0 Calma 4 Noroeste 0 -- -- 93
2021-01-05 09:00:00 -6.7 0 Calma 6 Este 0 -- -- 91
2021-01-05 08:00:00 -6.3 2 Sur 3 Este 0 -- -- 92
2021-01-05 07:00:00 -6.2 3 Sudeste 5 Noroeste 0 -- -- 90
2021-01-05 06:00:00 -5.8 0 Calma 8 Noroeste 0 -- -- 89
2021-01-05 05:00:00 -5.5 6 Noroeste 9 Noroeste 0 -- -- 89
2021-01-05 04:00:00 -5 0 Calma 13 Noroeste 0 -- -- 88
2021-01-05 03:00:00 -5.1 8 Noroeste 9 Noroeste 0 -- -- 88
2021-01-05 02:00:00 -4.4 3 Noroeste 6 Oeste 0 -- -- 87
2021-01-05 01:00:00 -3.9 6 Noroeste 8 Oeste 0 -- -- 86
2021-01-05 00:00:00 -3.3 7 Oeste 10 Oeste 0 -- -- 89
2021-01-04 23:00:00 -3.7 3 Oeste 6 Oeste 0 -- -- 89
2021-01-04 22:00:00 -3 3 Noroeste 7 Oeste 0 -- -- 87
2021-01-04 21:00:00 -1.9 7 Oeste 14 Oeste 0 -- -- 83
2021-01-04 20:00:00 0.2 4 Noroeste 15 Sudoeste 0 -- -- 79
2021-01-04 19:00:00 0.8 5 Oeste 13 Sudoeste 0 -- -- 80
2021-01-04 18:00:00 0.9 10 Oeste 14 Oeste 0 -- -- 71
2021-01-04 17:00:00 3.8 3 Nordeste 15 Nordeste 0 -- -- 61
2021-01-04 16:00:00 5.9 4 Norte 17 Oeste 0 -- -- 48
2021-01-04 15:00:00 5.6 12 Oeste 23 Sudoeste 0 -- -- 57
2021-01-04 14:00:00 5.1 17 Oeste 28 Oeste 0 -- -- 63
2021-01-04 13:00:00 3.8 21 Sudoeste 26 Sudoeste 0 -- -- 71
2021-01-04 12:00:00 2.9 18 Oeste 23 Oeste 0 -- -- 69
2021-01-04 11:00:00 0.6 17 Oeste 30 Oeste 0 -- -- 83
2021-01-04 10:00:00 -0.5 18 Oeste 33 Oeste 0 -- -- 86
2021-01-04 09:00:00 -1.9 14 Oeste 28 Oeste 0 -- -- 88
2021-01-04 08:00:00 -2.1 19 Oeste 28 Sudoeste 0 -- -- 87
2021-01-04 07:00:00 -1.5 19 Oeste 29 Sudoeste 0 -- -- 85
2021-01-04 06:00:00 -1.3 19 Oeste 30 Sudoeste 0 -- -- 83
2021-01-04 05:00:00 -1.5 12 Oeste 26 Sudoeste 0 -- -- 85
2021-01-04 04:00:00 -1.3 13 Oeste 24 Oeste 0 -- -- 84
2021-01-04 03:00:00 -0.2 19 Oeste 28 Oeste 0 -- -- 79
2021-01-04 02:00:00 -0.1 21 Oeste 31 Oeste 0 -- -- 81
2021-01-04 01:00:00 0.2 18 Oeste 32 Oeste 0 -- -- 81
2021-01-04 00:00:00 0.4 22 Oeste 32 Oeste 0 -- -- 87
2021-01-03 23:00:00 0.7 22 Oeste 38 Oeste 0 -- -- 88
2021-01-03 22:00:00 1.2 19 Oeste 33 Oeste 0 -- -- 86
2021-01-03 21:00:00 1.9 23 Oeste 34 Oeste 0 -- -- 82
2021-01-03 20:00:00 2.5 15 Oeste 28 Oeste 0 -- -- 77
2021-01-03 19:00:00 3 17 Oeste 36 Oeste 0 -- -- 68
2021-01-03 18:00:00 4.6 22 Oeste 34 Noroeste 0 -- -- 60
2021-01-03 17:00:00 6.5 26 Oeste 43 Oeste 0 -- -- 50
2021-01-03 16:00:00 7.2 24 Oeste 37 Oeste 0 -- -- 51
2021-01-03 15:00:00 6.9 16 Oeste 33 Oeste 0 -- -- 54
2021-01-03 14:00:00 6.5 22 Oeste 30 Oeste 0 -- -- 61
2021-01-03 13:00:00 5 24 Oeste 32 Oeste 0 -- -- 66
2021-01-03 12:00:00 3.9 21 Oeste 33 Oeste 0 -- -- 70
2021-01-03 11:00:00 1.2 22 Oeste 30 Sudoeste 0 -- -- 78
2021-01-03 10:00:00 0.2 16 Oeste 24 Sudoeste 0 -- -- 80
2021-01-03 09:00:00 -1.3 9 Oeste 28 Oeste 0 -- -- 81
2021-01-03 08:00:00 -1.1 5 Oeste 14 Oeste 0 -- -- 77
2021-01-03 07:00:00 -1.6 7 Oeste 17 Noroeste 0 -- -- 81
2021-01-03 06:00:00 -1.6 10 Noroeste 16 Noroeste 0 -- -- 81
2021-01-03 05:00:00 -1.5 11 Noroeste 17 Noroeste 0 -- -- 82
2021-01-03 04:00:00 -2.6 7 Noroeste 9 Noroeste 0 -- -- 84
2021-01-03 03:00:00 -2 3 Oeste 13 Noroeste 0 -- -- 82
2021-01-03 02:00:00 -2.4 9 Noroeste 12 Oeste 0 -- -- 83
2021-01-03 01:00:00 -2.4 10 Oeste 13 Noroeste 0 -- -- 84
2021-01-03 00:00:00 -2.6 11 Noroeste 13 Oeste 0 -- -- 87
2021-01-02 23:00:00 -2.1 9 Noroeste 14 Noroeste 0 -- -- 84
2021-01-02 22:00:00 -2.2 7 Noroeste 12 Noroeste 0 -- -- 86
2021-01-02 21:00:00 -2.1 7 Noroeste 11 Noroeste 0 -- -- 86
2021-01-02 20:00:00 -1.4 9 Noroeste 15 Noroeste 0 -- -- 81
2021-01-02 19:00:00 -0.6 10 Noroeste 13 Noroeste 0 -- -- 77
2021-01-02 18:00:00 3.7 5 Nordeste 21 Norte 0 -- -- 65
2021-01-02 17:00:00 6.1 14 Norte 21 Noroeste 0 -- -- 49
2021-01-02 16:00:00 6 12 Norte 24 Norte 0 -- -- 48
2021-01-02 15:00:00 5.3 15 Norte 22 Norte 0 -- -- 51
2021-01-02 14:00:00 5.4 13 Norte 25 Norte 0 -- -- 49